createdAt,value
2023-03-22T01:59:44.313Z,110.77
2023-03-22T02:00:44.377Z,111.27
2023-03-22T02:01:44.486Z,109.93
2023-03-22T02:02:44.529Z,111.18
2023-03-22T02:03:44.533Z,110.52
2023-03-22T02:04:44.608Z,110.63
2023-03-22T02:05:44.685Z,109.89
2023-03-22T02:06:44.695Z,110.50
2023-03-22T02:07:44.791Z,110.90
2023-03-22T02:08:44.830Z,110.86
2023-03-22T02:09:44.915Z,109.50
2023-03-22T02:10:44.941Z,110.91
2023-03-22T02:11:44.986Z,110.03
2023-03-22T02:12:45.043Z,108.50
2023-03-22T02:13:45.077Z,110.68
2023-03-22T02:14:45.154Z,108.90
2023-03-22T02:15:45.239Z,110.72
2023-03-22T02:16:45.242Z,109.91
2023-03-22T02:17:45.324Z,109.85
2023-03-22T02:18:45.354Z,108.16
2023-03-22T02:19:45.387Z,109.09
2023-03-22T02:20:45.487Z,107.47
2023-03-22T02:21:45.529Z,108.28
2023-03-22T02:22:45.584Z,107.16
2023-03-22T02:23:45.644Z,107.64
2023-03-22T02:24:45.674Z,109.81
2023-03-22T02:25:45.694Z,107.60
2023-03-22T02:26:45.778Z,108.18
2023-03-22T02:27:45.809Z,109.00
2023-03-22T02:28:45.889Z,108.64
2023-03-22T02:29:45.913Z,107.38
2023-03-22T02:30:45.977Z,108.66
2023-03-22T02:31:46.018Z,109.00
2023-03-22T02:32:46.071Z,107.35
2023-03-22T02:33:46.132Z,109.40
2023-03-22T02:34:46.146Z,108.43
2023-03-22T02:35:46.244Z,108.67
2023-03-22T02:36:46.248Z,109.14
2023-03-22T02:37:46.341Z,109.11
2023-03-22T02:38:46.381Z,108.63
2023-03-22T02:39:46.427Z,109.26
2023-03-22T02:40:46.477Z,109.23
2023-03-22T02:41:46.521Z,107.56
2023-03-22T02:42:46.573Z,107.80
2023-03-22T02:43:46.639Z,108.97
2023-03-22T05:05:49.450Z,108.35
2023-03-22T05:06:49.502Z,109.13
2023-03-22T05:07:49.494Z,108.02
2023-03-22T05:08:49.494Z,109.58
2023-03-22T05:09:49.518Z,108.78
2023-03-22T05:10:49.529Z,107.50
2023-03-22T05:11:49.557Z,107.94
2023-03-22T05:12:49.535Z,108.37
2023-03-22T05:13:49.558Z,107.92
2023-03-22T05:14:49.629Z,107.52
2023-03-22T05:15:49.640Z,107.76
2023-03-22T05:16:49.618Z,108.49
2023-03-22T05:17:49.625Z,107.79
2023-03-22T05:18:49.628Z,108.57
2023-03-22T05:19:49.640Z,107.25
2023-03-22T05:20:49.647Z,107.04
2023-03-22T05:21:49.689Z,106.79
2023-03-22T05:22:49.716Z,107.49
2023-03-22T05:23:51.483Z,106.76
2023-03-22T05:24:49.759Z,105.68
2023-03-22T05:25:49.744Z,107.16
2023-03-22T05:26:49.751Z,106.67
2023-03-22T05:27:49.782Z,104.68
2023-03-22T05:28:49.780Z,106.75
2023-03-22T05:29:49.877Z,107.15
2023-03-22T05:30:49.864Z,107.09
2023-03-22T05:31:49.929Z,106.11
2023-03-22T05:32:49.887Z,107.62
2023-03-22T05:33:49.933Z,108.03
2023-03-22T05:34:49.956Z,105.66
2023-03-22T05:35:50.012Z,105.73
2023-03-22T05:36:49.988Z,105.36
2023-03-22T05:37:49.973Z,106.57
2023-03-22T05:38:49.984Z,105.44
2023-03-22T05:39:50.008Z,105.38
2023-03-22T05:40:49.978Z,105.58
2023-03-22T05:41:49.978Z,105.12
2023-03-22T05:42:50.004Z,104.70
2023-03-22T05:43:50.017Z,105.06
2023-03-22T05:44:50.017Z,103.42
2023-03-22T05:45:50.020Z,105.82
2023-03-22T05:46:50.003Z,104.98
2023-03-22T05:47:50.039Z,105.58
2023-03-22T05:48:50.041Z,105.10
2023-03-22T05:49:50.060Z,105.21
2023-03-22T05:50:50.056Z,105.59
2023-03-22T05:51:50.020Z,104.47
2023-03-22T05:52:50.041Z,104.45
2023-03-22T05:53:50.039Z,104.90
2023-03-22T05:54:50.001Z,103.84
2023-03-22T05:55:49.996Z,104.04
2023-03-22T05:56:50.007Z,104.78
2023-03-22T05:57:49.999Z,102.69
2023-03-22T05:58:50.005Z,105.16
2023-03-22T05:59:49.980Z,104.31
2023-03-22T06:00:57.022Z,103.56
2023-03-22T06:01:50.041Z,103.81
2023-03-22T06:02:50.052Z,104.43
2023-03-22T06:03:49.997Z,104.53
2023-03-22T06:04:49.978Z,105.09
2023-03-22T06:05:49.980Z,105.17
2023-03-22T06:06:50.001Z,104.02
2023-03-22T06:07:49.979Z,104.56
2023-03-22T06:08:49.969Z,103.72
2023-03-22T06:09:49.958Z,103.97
2023-03-22T06:10:49.956Z,102.93
2023-03-22T06:11:49.938Z,104.16
2023-03-22T06:12:49.946Z,102.46
2023-03-22T06:13:49.940Z,101.21
2023-03-22T06:14:49.954Z,102.44
2023-03-22T06:15:49.909Z,102.41
2023-03-22T06:16:49.999Z,102.08
2023-03-22T06:17:49.906Z,101.44
2023-03-22T06:18:49.881Z,102.58
2023-03-22T06:19:52.607Z,102.08
2023-03-22T06:20:49.887Z,102.12
2023-03-22T06:21:49.867Z,102.56
2023-03-22T06:22:49.880Z,102.76
2023-03-22T06:23:49.831Z,101.90
2023-03-22T06:24:49.833Z,101.91
2023-03-22T06:25:49.851Z,104.38
2023-03-22T06:26:49.840Z,101.35
2023-03-22T06:27:49.810Z,102.05
2023-03-22T06:28:49.769Z,103.62
2023-03-22T06:29:49.762Z,103.35
2023-03-22T06:30:49.810Z,100.16
2023-03-22T06:31:49.753Z,102.84
2023-03-22T06:32:49.718Z,105.29
2023-03-22T06:33:49.736Z,106.49
2023-03-22T06:34:49.734Z,112.24
2023-03-22T06:35:49.737Z,128.59
2023-03-22T06:36:49.693Z,132.41
2023-03-22T06:37:49.704Z,125.49
2023-03-22T06:38:49.730Z,120.83
2023-03-22T06:39:49.701Z,120.12
2023-03-22T06:40:50.182Z,119.84
2023-03-22T06:41:49.679Z,119.13
2023-03-22T06:42:49.676Z,121.56
2023-03-22T06:43:49.687Z,120.14
2023-03-22T06:44:49.665Z,119.37
2023-03-22T06:45:56.835Z,118.03
2023-03-22T06:46:49.649Z,118.40
2023-03-22T06:47:49.675Z,119.45
2023-03-22T06:48:49.660Z,122.60
2023-03-22T06:49:49.679Z,128.25
2023-03-22T06:50:49.684Z,141.71
2023-03-22T06:51:49.616Z,140.07
2023-03-22T06:52:49.664Z,138.33
2023-03-22T06:53:49.696Z,137.86
2023-03-22T06:54:49.612Z,121.40
2023-03-22T06:55:49.607Z,125.68
2023-03-22T06:56:49.593Z,134.24
2023-03-22T06:57:49.634Z,134.83
2023-03-22T06:58:49.696Z,128.94
2023-03-22T06:59:49.582Z,129.21
2023-03-22T07:00:49.592Z,128.35
2023-03-22T07:01:49.586Z,125.81
2023-03-22T07:02:51.526Z,126.29
2023-03-22T07:03:49.597Z,125.77
2023-03-22T07:04:49.624Z,122.71
2023-03-22T07:05:49.582Z,122.74
2023-03-22T07:06:49.600Z,122.34
2023-03-22T07:07:49.598Z,121.53
2023-03-22T07:08:50.887Z,119.06
2023-03-22T07:09:49.591Z,118.72
2023-03-22T07:10:49.579Z,119.10
2023-03-22T07:11:49.614Z,116.75
2023-03-22T07:12:49.700Z,113.08
2023-03-22T07:13:49.666Z,111.13
2023-03-22T07:14:49.750Z,111.09
2023-03-22T07:15:49.835Z,107.73
2023-03-22T07:16:50.274Z,89.10
2023-03-22T07:17:49.902Z,83.26
2023-03-22T07:18:49.972Z,89.10
2023-03-22T07:19:50.027Z,91.04
2023-03-22T07:20:50.096Z,86.39
2023-03-22T07:21:50.250Z,89.46
2023-03-22T07:22:50.197Z,90.91
2023-03-22T07:23:50.273Z,88.61
2023-03-22T07:24:56.697Z,89.62
2023-03-22T07:26:50.301Z,77.53
2023-03-22T07:27:50.313Z,55.72
2023-03-22T07:28:50.319Z,60.35
2023-03-22T07:29:50.379Z,45.53
2023-03-22T07:30:50.372Z,60.43
2023-03-22T07:31:50.870Z,66.08
2023-03-22T07:32:50.321Z,61.39
2023-03-22T07:33:50.318Z,65.97
2023-03-22T07:34:50.333Z,51.95
2023-03-22T07:35:50.441Z,36.53
2023-03-22T07:36:50.711Z,29.14
2023-03-22T07:37:50.522Z,88.07
2023-03-22T07:38:50.529Z,66.91
2023-03-22T07:39:50.571Z,59.16
2023-03-22T07:40:50.588Z,50.14
2023-03-22T07:41:50.783Z,82.36
2023-03-22T07:44:50.793Z,24.86
2023-03-22T08:36:54.305Z,137.04
2023-03-22T08:47:54.480Z,166.30
2023-03-22T08:48:54.345Z,169.17
2023-03-22T08:49:54.394Z,166.90
2023-03-22T08:50:54.437Z,175.95
2023-03-22T08:51:54.508Z,175.36
2023-03-22T08:52:54.563Z,176.48
2023-03-22T08:53:54.637Z,178.84
2023-03-22T08:54:54.700Z,179.32
2023-03-22T08:55:54.786Z,182.48
2023-03-22T08:56:54.851Z,175.85
2023-03-22T08:57:54.906Z,186.39
2023-03-22T08:58:54.974Z,188.46
2023-03-22T08:59:54.973Z,190.63
2023-03-22T09:00:55.134Z,190.62
2023-03-22T09:01:55.226Z,190.60
2023-03-22T09:02:55.196Z,191.15
2023-03-22T09:03:55.212Z,191.48
2023-03-22T09:04:55.333Z,193.98
2023-03-22T09:05:55.315Z,195.38
2023-03-22T09:06:55.376Z,188.22
2023-03-22T09:07:56.607Z,181.68
2023-03-22T09:20:55.960Z,148.39
2023-03-22T10:53:57.850Z,163.10
2023-03-22T10:55:02.326Z,164.99
2023-03-22T10:56:57.870Z,165.52
2023-03-22T10:57:57.927Z,167.54
2023-03-22T10:58:57.909Z,169.93
2023-03-22T10:59:57.862Z,173.74
2023-03-22T11:00:57.902Z,178.34
2023-03-22T11:01:58.095Z,179.24
2023-03-22T11:02:57.961Z,176.62
2023-03-22T11:03:57.900Z,175.41
2023-03-22T11:04:57.831Z,174.41
2023-03-22T11:05:57.930Z,174.42
2023-03-22T11:06:57.856Z,175.12
2023-03-22T14:46:32.943Z,25.00
2023-03-22T14:47:32.948Z,25.00
2023-03-22T14:48:32.991Z,25.00
2023-03-22T14:49:33.003Z,25.00
2023-03-22T14:50:33.001Z,25.00
2023-03-22T14:51:33.037Z,25.00
2023-03-22T14:52:33.025Z,59.29
2023-03-22T14:53:33.030Z,87.35
2023-03-22T14:54:33.071Z,114.59
2023-03-22T14:55:33.083Z,119.15
2023-03-22T14:56:33.105Z,130.46
2023-03-22T14:57:36.809Z,102.78
2023-03-22T14:58:33.103Z,104.01
2023-03-22T14:59:33.104Z,101.76
2023-03-22T15:00:33.125Z,107.94
2023-03-22T15:04:33.168Z,151.56
2023-03-22T15:05:33.164Z,162.10
2023-03-22T15:06:33.198Z,176.89
2023-03-22T15:07:33.177Z,142.62
2023-03-22T15:08:33.242Z,158.76
2023-03-22T15:13:33.268Z,90.72
2023-03-22T15:14:33.274Z,143.17
2023-03-22T15:15:33.622Z,168.90
2023-03-22T15:16:33.401Z,187.46
2023-03-22T15:17:33.354Z,186.76
2023-03-22T15:18:33.322Z,195.67
2023-03-22T15:19:33.362Z,125.26
2023-03-22T15:20:33.634Z,134.09
2023-03-22T15:21:33.376Z,182.33
2023-03-22T15:22:33.405Z,214.24
2023-03-22T15:23:33.399Z,178.41
2023-03-22T15:24:33.426Z,109.13
2023-03-22T15:29:33.480Z,0.00
2023-03-22T15:30:33.440Z,14.11
2023-03-22T15:31:33.538Z,31.63
2023-03-22T15:32:33.460Z,122.21
2023-03-22T15:33:33.477Z,139.18
2023-03-22T15:34:33.476Z,181.64
2023-03-22T15:35:33.581Z,179.49
2023-03-22T15:36:33.537Z,146.94
2023-03-22T15:37:33.533Z,76.29
2023-03-22T15:38:43.153Z,56.15
2023-03-22T15:39:34.551Z,57.23
2023-03-22T15:43:33.548Z,44.64
2023-03-22T15:44:33.551Z,108.60
2023-03-22T15:45:33.604Z,118.83
2023-03-22T15:46:33.601Z,142.83
2023-03-22T15:47:33.602Z,194.44
2023-03-22T15:48:33.609Z,166.09
2023-03-22T15:49:33.634Z,190.27
2023-03-22T15:50:33.663Z,129.51
2023-03-22T16:19:34.025Z,250.24
2023-03-22T16:20:34.126Z,248.95
2023-03-22T16:23:34.166Z,250.00
2023-03-22T16:25:34.866Z,250.08
2023-03-22T16:27:34.182Z,257.52
2023-03-22T16:28:34.197Z,266.20
2023-03-22T16:29:34.213Z,277.35
2023-03-22T16:30:34.248Z,259.27
2023-03-22T16:37:34.264Z,234.64
2023-03-22T16:38:34.231Z,236.24
2023-03-22T16:45:34.417Z,238.22
2023-03-22T16:56:34.638Z,223.90
2023-03-22T16:58:34.613Z,214.16
2023-03-22T16:59:34.624Z,209.09
2023-03-22T17:06:34.770Z,216.89
2023-03-22T17:07:34.780Z,211.57
2023-03-22T17:08:34.801Z,209.82
2023-03-22T17:09:34.889Z,209.53
2023-03-22T17:10:34.863Z,203.18
2023-03-22T17:17:34.984Z,209.06
2023-03-22T17:18:35.051Z,208.56
2023-03-22T17:19:35.028Z,212.89
2023-03-22T17:20:35.077Z,215.57
2023-03-22T17:21:35.172Z,218.17
2023-03-22T17:22:35.121Z,213.16
2023-03-22T17:23:35.137Z,214.17
2023-03-22T17:24:35.195Z,210.90
2023-03-22T17:25:35.214Z,211.09
2023-03-22T17:26:35.220Z,214.05
2023-03-22T17:27:35.252Z,215.62
2023-03-22T17:28:35.270Z,218.08
2023-03-22T17:29:35.256Z,218.14
2023-03-22T17:30:35.286Z,219.28
2023-03-22T17:31:35.336Z,221.33
2023-03-22T17:32:59.277Z,215.33
2023-03-22T17:33:36.381Z,214.30
2023-03-22T17:36:35.428Z,206.67
2023-03-22T17:38:44.081Z,204.10
2023-03-22T17:40:42.644Z,204.43
2023-03-22T17:41:36.408Z,204.68
2023-03-22T17:47:39.125Z,226.14
2023-03-22T17:48:36.475Z,226.13
2023-03-22T17:51:35.540Z,213.24
2023-03-22T17:54:24.144Z,208.61
2023-03-22T17:56:10.663Z,208.72
2023-03-22T17:58:41.673Z,209.37
2023-03-22T17:59:36.567Z,209.41
2023-03-22T18:03:35.557Z,226.01
2023-03-22T18:04:35.608Z,224.06
2023-03-22T18:05:35.616Z,218.98
2023-03-22T18:06:35.654Z,216.91
2023-03-22T18:07:35.638Z,214.74
2023-03-22T18:10:35.641Z,217.55
2023-03-22T18:11:35.688Z,217.36
2023-03-22T18:13:35.664Z,217.87
2023-03-22T18:16:52.902Z,212.00
2023-03-22T18:17:36.719Z,212.17
2023-03-22T18:18:35.692Z,212.87
2023-03-22T18:19:36.901Z,213.86
2023-03-22T18:22:35.755Z,198.79
2023-03-22T18:28:35.798Z,207.42
2023-03-22T18:29:35.794Z,205.24
2023-03-22T18:30:35.867Z,210.17
2023-03-22T18:31:35.812Z,213.52
2023-03-22T18:32:59.751Z,221.30
2023-03-22T18:33:36.835Z,221.60
2023-03-22T18:35:35.822Z,225.02
2023-03-22T18:36:35.944Z,229.55
2023-03-22T18:37:35.891Z,237.98
2023-03-22T18:41:45.003Z,240.44
2023-03-22T18:43:36.702Z,242.23
2023-03-22T18:47:35.970Z,250.00
2023-03-22T18:48:36.448Z,249.58
2023-03-22T18:51:59.630Z,248.65
2023-03-22T18:52:54.393Z,248.82
2023-03-22T18:53:36.988Z,248.95
2023-03-22T18:54:38.871Z,248.92
2023-03-22T18:55:36.639Z,244.40
2023-03-22T18:56:36.017Z,237.78
2023-03-22T18:57:36.052Z,237.53
2023-03-22T18:58:36.048Z,239.50
2023-03-22T19:00:36.062Z,242.28
2023-03-22T19:01:36.084Z,243.06
2023-03-22T19:02:40.186Z,244.27
2023-03-22T19:06:36.127Z,247.55
2023-03-22T19:08:36.134Z,250.00
2023-03-22T19:09:36.171Z,249.44
2023-03-22T19:13:42.605Z,248.51
2023-03-22T19:17:36.269Z,247.14
2023-03-22T19:18:36.260Z,246.06
2023-03-22T19:19:36.289Z,246.82
2023-03-22T19:20:40.228Z,246.52
2023-03-22T19:21:37.111Z,246.65
2023-03-22T19:22:36.323Z,246.83
2023-03-22T19:23:36.315Z,246.57
2023-03-22T19:24:36.336Z,244.33
2023-03-22T19:28:37.428Z,238.19
2023-03-22T19:29:36.393Z,238.32
2023-03-22T19:30:36.415Z,239.07
2023-03-22T19:31:37.210Z,241.07
2023-03-22T19:34:36.513Z,244.05
2023-03-22T19:35:36.500Z,246.09
2023-03-22T19:36:36.596Z,246.62
2023-03-22T19:37:36.537Z,244.72
2023-03-22T19:38:36.557Z,246.19
2023-03-22T19:39:38.159Z,246.68
2023-03-22T19:41:28.873Z,245.94
2023-03-22T19:44:36.618Z,238.30
2023-03-22T19:45:36.636Z,231.98
2023-03-22T19:46:36.865Z,228.67
2023-03-22T19:47:48.230Z,224.14
2023-03-22T19:48:37.769Z,219.78
2023-03-22T19:52:36.694Z,220.95
2023-03-22T19:55:36.738Z,231.22
2023-03-22T19:56:36.762Z,230.48
2023-03-22T19:57:36.785Z,228.52
2023-03-22T19:58:36.791Z,229.67
2023-03-22T20:00:44.904Z,235.00
2023-03-22T20:01:37.801Z,235.11
2023-03-22T20:03:36.835Z,235.82
2023-03-22T20:04:36.836Z,236.63
2023-03-22T20:05:43.305Z,238.05
2023-03-22T20:06:37.859Z,235.22
2023-03-22T20:07:36.882Z,236.11
2023-03-22T20:08:36.900Z,236.57
2023-03-22T20:09:36.904Z,239.37
2023-03-22T20:10:36.928Z,242.47
2023-03-22T20:11:43.339Z,242.95
2023-03-22T20:12:37.984Z,243.12
2023-03-22T20:13:36.928Z,243.42
2023-03-22T20:14:36.964Z,243.45
2023-03-22T20:15:36.988Z,243.98
2023-03-22T20:17:36.983Z,242.80
2023-03-22T20:18:37.000Z,241.22
2023-03-22T20:19:37.010Z,240.56
2023-03-22T20:20:37.056Z,241.33
2023-03-22T20:21:37.072Z,242.02
2023-03-22T20:22:37.069Z,241.14
2023-03-22T20:24:37.082Z,243.52
2023-03-22T20:25:37.080Z,243.81
2023-03-22T20:26:37.100Z,244.05
2023-03-22T20:28:37.139Z,245.53
2023-03-22T20:29:37.229Z,247.20
2023-03-22T20:30:37.291Z,246.58
2023-03-22T20:31:37.334Z,246.21
2023-03-22T20:32:37.378Z,243.54
2023-03-22T20:33:37.438Z,244.61
2023-03-22T20:34:37.523Z,244.28
2023-03-22T20:35:37.547Z,245.05
2023-03-22T20:36:37.658Z,245.58
2023-03-22T20:37:37.651Z,245.83
2023-03-22T20:38:37.690Z,245.95
2023-03-22T20:39:37.775Z,243.77
2023-03-22T20:40:37.821Z,243.53
2023-03-22T20:41:37.851Z,237.02
2023-03-22T20:42:37.932Z,224.57
2023-03-22T20:43:37.982Z,224.24
2023-03-22T20:44:38.030Z,218.47
2023-03-22T20:45:38.082Z,216.83
2023-03-22T20:46:38.161Z,218.84
2023-03-22T20:47:38.196Z,222.03
2023-03-22T20:48:38.264Z,217.90
2023-03-22T20:49:38.358Z,217.51
2023-03-22T20:50:38.386Z,219.67
2023-03-22T20:51:38.456Z,223.02
2023-03-22T20:52:38.520Z,225.56
2023-03-22T20:53:38.560Z,227.87
2023-03-22T20:54:38.658Z,229.26
2023-03-22T20:55:38.936Z,228.69
2023-03-22T20:56:38.788Z,230.75
2023-03-22T20:57:38.828Z,230.74
2023-03-22T20:58:38.903Z,231.10
2023-03-22T20:59:38.949Z,233.05
2023-03-22T21:00:39.023Z,235.33
2023-03-22T21:01:39.135Z,232.39
2023-03-22T21:02:39.157Z,229.13
2023-03-22T21:03:39.255Z,228.72
2023-03-22T21:04:39.362Z,230.99
2023-03-22T21:05:39.381Z,233.15
2023-03-22T21:06:39.374Z,235.83
2023-03-22T21:07:39.464Z,235.09
2023-03-22T21:08:39.523Z,233.34
2023-03-22T21:09:39.600Z,233.41
2023-03-22T21:10:39.656Z,233.16
2023-03-22T21:11:39.716Z,230.81
2023-03-22T21:12:39.770Z,230.60
2023-03-22T21:13:39.830Z,229.49
2023-03-22T21:14:39.844Z,229.83
2023-03-22T21:15:40.138Z,229.78
2023-03-22T21:16:39.952Z,231.20
2023-03-22T21:17:40.016Z,230.21
2023-03-22T21:18:40.049Z,231.29
2023-03-22T21:19:40.083Z,229.84
2023-03-22T21:20:40.127Z,226.41
2023-03-22T21:21:40.191Z,219.75
2023-03-22T21:22:40.234Z,213.51
2023-03-22T21:23:40.332Z,213.14
2023-03-22T21:24:40.351Z,214.92
2023-03-22T21:25:40.593Z,218.34
2023-03-22T21:26:40.489Z,220.14
2023-03-22T21:27:40.514Z,224.42
2023-03-22T21:28:40.586Z,227.20
2023-03-22T21:29:40.638Z,226.53
2023-03-22T21:30:40.690Z,228.07
2023-03-22T21:31:40.757Z,229.76
2023-03-22T21:32:40.821Z,231.25
2023-03-22T21:33:40.975Z,229.50
2023-03-22T21:34:40.939Z,227.85
2023-03-22T21:35:41.114Z,227.23
2023-03-22T21:36:41.073Z,228.19
2023-03-22T21:37:41.098Z,228.92
2023-03-22T21:38:41.160Z,229.86
2023-03-22T21:39:41.191Z,229.28
2023-03-22T21:40:41.260Z,229.95
2023-03-22T21:41:41.328Z,229.94
2023-03-22T21:42:41.390Z,230.07
2023-03-22T21:43:41.425Z,231.06
2023-03-22T21:44:41.495Z,227.54
2023-03-22T21:45:41.741Z,224.12
2023-03-22T21:46:41.618Z,224.43
2023-03-22T21:47:41.661Z,224.95
2023-03-22T21:48:41.706Z,225.62
2023-03-22T21:49:41.774Z,224.84
2023-03-22T21:50:41.822Z,224.99
2023-03-22T21:51:41.882Z,226.15
2023-03-22T21:52:41.950Z,226.15
2023-03-22T21:56:42.132Z,229.32
2023-03-22T21:57:42.156Z,227.17
2023-03-22T21:58:42.206Z,231.33
2023-03-22T21:59:42.298Z,229.85
2023-03-22T22:00:42.345Z,231.38
2023-03-22T22:01:42.383Z,231.65
2023-03-22T22:02:42.486Z,229.83
2023-03-22T22:03:42.538Z,232.13
2023-03-22T22:04:42.570Z,232.62
2023-03-22T22:05:42.897Z,232.53
2023-03-22T22:06:42.674Z,232.26
2023-03-22T22:07:42.727Z,230.56
2023-03-22T22:08:42.818Z,231.68
2023-03-22T22:09:42.839Z,230.29
2023-03-22T22:10:42.903Z,232.19
2023-03-22T22:11:42.958Z,231.42
2023-03-22T22:12:43.002Z,232.42
2023-03-22T22:13:43.086Z,231.93
2023-03-22T22:14:43.124Z,234.28
2023-03-22T22:15:43.293Z,232.94
2023-03-22T22:16:43.227Z,233.52
2023-03-22T22:17:43.331Z,232.89
2023-03-22T22:18:43.395Z,232.42
2023-03-22T22:19:43.438Z,231.53
2023-03-22T22:20:43.501Z,233.24
2023-03-22T22:21:43.552Z,232.39
2023-03-22T22:22:43.635Z,231.99
2023-03-22T22:23:43.702Z,231.20
2023-03-22T22:24:43.778Z,233.09
2023-03-22T22:25:43.803Z,232.31
2023-03-22T22:26:43.856Z,230.66
2023-03-22T22:27:43.921Z,230.37
2023-03-22T22:28:44.004Z,229.39
2023-03-22T22:29:44.079Z,224.94
2023-03-22T22:30:44.129Z,223.43
2023-03-22T22:31:44.150Z,220.00
2023-03-22T22:32:44.232Z,220.96
2023-03-22T22:33:44.307Z,219.42
2023-03-22T22:34:44.337Z,220.38
2023-03-22T22:35:44.609Z,220.20
2023-03-22T22:36:45.310Z,218.89
2023-03-22T22:39:44.694Z,208.98
2023-03-22T22:40:44.724Z,199.86
2023-03-22T22:41:44.781Z,197.31
2023-03-22T22:42:44.853Z,191.97
2023-03-22T22:43:44.928Z,190.00
2023-03-22T22:44:44.996Z,188.27
2023-03-22T22:45:45.071Z,189.45
2023-03-22T22:46:45.145Z,186.44
2023-03-22T22:47:45.195Z,188.96
2023-03-22T22:48:45.279Z,191.19
2023-03-22T22:49:45.360Z,195.80
2023-03-22T22:50:45.410Z,196.06
2023-03-22T22:51:45.495Z,197.27
2023-03-22T22:52:45.599Z,193.80
2023-03-22T22:53:45.648Z,190.19
2023-03-22T22:54:45.717Z,188.51
2023-03-22T22:55:45.777Z,188.75
2023-03-22T22:56:45.835Z,188.39
2023-03-22T22:57:45.913Z,190.21
2023-03-22T22:58:45.981Z,190.41
2023-03-22T22:59:46.034Z,192.16
2023-03-22T23:00:46.127Z,193.99
2023-03-22T23:01:46.204Z,196.89
2023-03-22T23:02:46.277Z,196.75
2023-03-22T23:03:46.319Z,199.83
2023-03-22T23:04:46.380Z,200.62
2023-03-22T23:05:46.476Z,200.09
2023-03-22T23:06:46.540Z,201.29
2023-03-22T23:07:46.614Z,202.14
2023-03-22T23:08:46.688Z,201.69
2023-03-22T23:09:46.777Z,201.52
2023-03-22T23:10:46.832Z,201.23
2023-03-22T23:11:46.902Z,201.16
2023-03-22T23:12:47.006Z,200.43
2023-03-22T23:13:47.052Z,202.25
2023-03-22T23:14:47.112Z,202.17
2023-03-22T23:15:47.147Z,202.08
2023-03-22T23:16:47.255Z,199.51
2023-03-22T23:17:47.281Z,198.63
2023-03-22T23:18:47.339Z,195.69
2023-03-22T23:19:47.438Z,193.74
2023-03-22T23:20:47.492Z,194.25
2023-03-22T23:21:47.563Z,195.14
2023-03-22T23:22:47.628Z,194.85
2023-03-22T23:23:50.081Z,196.17
2023-03-22T23:24:47.755Z,198.35
2023-03-22T23:25:47.847Z,196.59
2023-03-22T23:26:47.913Z,197.82
2023-03-22T23:27:47.957Z,196.74
2023-03-22T23:28:48.026Z,193.31
2023-03-22T23:29:48.130Z,192.38
2023-03-22T23:30:48.159Z,192.92
2023-03-22T23:31:48.249Z,193.01
2023-03-22T23:32:48.336Z,194.08
2023-03-22T23:33:48.396Z,192.02
2023-03-22T23:34:48.455Z,188.26
2023-03-22T23:35:48.552Z,176.44
2023-03-22T23:36:48.638Z,164.58
2023-03-22T23:37:48.680Z,162.33
2023-03-22T23:38:48.771Z,162.42
2023-03-22T23:39:48.816Z,157.49
2023-03-22T23:40:48.904Z,155.50
2023-03-22T23:41:48.977Z,156.33
2023-03-22T23:42:49.053Z,163.10
2023-03-22T23:43:49.066Z,163.26
2023-03-22T23:44:49.083Z,164.36
2023-03-22T23:45:49.107Z,167.16
2023-03-22T23:57:49.349Z,193.94
2023-03-22T23:58:49.345Z,191.27
2023-03-22T23:59:49.403Z,188.67
